sensor_id;sensor_type;location;lat;lon;timestamp;P1;durP1;ratioP1;P2;durP2;ratioP2
15968;SDS011;8085;53.472;9.794;2023-03-19T00:00:02;2.47;;;1.07;;
15968;SDS011;8085;53.472;9.794;2023-03-19T00:02:33;1.97;;;1.03;;
15968;SDS011;8085;53.472;9.794;2023-03-19T00:05:00;1.40;;;1.10;;
15968;SDS011;8085;53.472;9.794;2023-03-19T00:07:27;1.77;;;1.10;;
15968;SDS011;8085;53.472;9.794;2023-03-19T00:09:54;2.60;;;0.90;;
15968;SDS011;8085;53.472;9.794;2023-03-19T00:12:21;1.10;;;1.00;;
15968;SDS011;8085;53.472;9.794;2023-03-19T00:14:50;1.53;;;1.10;;
15968;SDS011;8085;53.472;9.794;2023-03-19T00:17:16;1.83;;;1.00;;
15968;SDS011;8085;53.472;9.794;2023-03-19T00:19:43;1.10;;;1.00;;
15968;SDS011;8085;53.472;9.794;2023-03-19T00:22:10;1.70;;;1.10;;
15968;SDS011;8085;53.472;9.794;2023-03-19T00:24:37;1.67;;;1.10;;
15968;SDS011;8085;53.472;9.794;2023-03-19T00:27:04;1.30;;;1.03;;
15968;SDS011;8085;53.472;9.794;2023-03-19T00:29:31;1.77;;;1.23;;
15968;SDS011;8085;53.472;9.794;2023-03-19T00:31:59;2.00;;;0.90;;
15968;SDS011;8085;53.472;9.794;2023-03-19T00:34:26;1.10;;;1.00;;
15968;SDS011;8085;53.472;9.794;2023-03-19T00:36:53;2.37;;;1.10;;
15968;SDS011;8085;53.472;9.794;2023-03-19T00:39:20;2.13;;;1.03;;
15968;SDS011;8085;53.472;9.794;2023-03-19T00:41:47;3.67;;;1.13;;
15968;SDS011;8085;53.472;9.794;2023-03-19T00:44:15;1.70;;;1.10;;
15968;SDS011;8085;53.472;9.794;2023-03-19T00:46:43;2.30;;;1.17;;
15968;SDS011;8085;53.472;9.794;2023-03-19T00:49:11;1.97;;;0.90;;
15968;SDS011;8085;53.472;9.794;2023-03-19T00:51:38;3.87;;;1.03;;
15968;SDS011;8085;53.472;9.794;2023-03-19T00:54:08;1.70;;;1.10;;
15968;SDS011;8085;53.472;9.794;2023-03-19T00:56:36;1.20;;;1.10;;
15968;SDS011;8085;53.472;9.794;2023-03-19T00:59:03;2.33;;;1.30;;
15968;SDS011;8085;53.472;9.794;2023-03-19T01:01:30;1.30;;;1.03;;
15968;SDS011;8085;53.472;9.794;2023-03-19T01:03:57;1.50;;;1.00;;
15968;SDS011;8085;53.472;9.794;2023-03-19T01:06:25;1.30;;;0.97;;
15968;SDS011;8085;53.472;9.794;2023-03-19T01:08:52;1.80;;;0.93;;
15968;SDS011;8085;53.472;9.794;2023-03-19T01:11:19;2.67;;;1.27;;
15968;SDS011;8085;53.472;9.794;2023-03-19T01:13:45;3.33;;;0.90;;
15968;SDS011;8085;53.472;9.794;2023-03-19T01:16:12;1.43;;;1.10;;
15968;SDS011;8085;53.472;9.794;2023-03-19T01:18:40;2.47;;;1.10;;
15968;SDS011;8085;53.472;9.794;2023-03-19T01:21:06;1.60;;;1.20;;
15968;SDS011;8085;53.472;9.794;2023-03-19T01:23:36;1.50;;;1.20;;
15968;SDS011;8085;53.472;9.794;2023-03-19T01:26:03;1.83;;;1.20;;
15968;SDS011;8085;53.472;9.794;2023-03-19T01:28:30;2.73;;;1.20;;
15968;SDS011;8085;53.472;9.794;2023-03-19T01:30:57;1.97;;;1.30;;
15968;SDS011;8085;53.472;9.794;2023-03-19T01:33:25;1.23;;;0.97;;
15968;SDS011;8085;53.472;9.794;2023-03-19T01:35:53;1.60;;;1.30;;
15968;SDS011;8085;53.472;9.794;2023-03-19T01:38:22;2.30;;;1.13;;
15968;SDS011;8085;53.472;9.794;2023-03-19T01:40:50;2.03;;;1.27;;
15968;SDS011;8085;53.472;9.794;2023-03-19T01:43:18;1.60;;;1.30;;
15968;SDS011;8085;53.472;9.794;2023-03-19T01:45:47;1.73;;;1.27;;
15968;SDS011;8085;53.472;9.794;2023-03-19T01:48:22;1.87;;;1.17;;
15968;SDS011;8085;53.472;9.794;2023-03-19T01:50:53;1.40;;;1.23;;
15968;SDS011;8085;53.472;9.794;2023-03-19T01:53:21;2.03;;;1.50;;
15968;SDS011;8085;53.472;9.794;2023-03-19T01:55:53;2.03;;;1.43;;
15968;SDS011;8085;53.472;9.794;2023-03-19T01:58:23;2.10;;;1.20;;
15968;SDS011;8085;53.472;9.794;2023-03-19T02:00:50;1.53;;;1.33;;
15968;SDS011;8085;53.472;9.794;2023-03-19T02:03:17;2.00;;;1.40;;
15968;SDS011;8085;53.472;9.794;2023-03-19T02:05:45;1.77;;;1.17;;
15968;SDS011;8085;53.472;9.794;2023-03-19T02:08:15;1.83;;;1.40;;
15968;SDS011;8085;53.472;9.794;2023-03-19T02:10:44;2.63;;;1.40;;
15968;SDS011;8085;53.472;9.794;2023-03-19T02:13:13;3.17;;;1.40;;
15968;SDS011;8085;53.472;9.794;2023-03-19T02:15:41;2.10;;;1.30;;
15968;SDS011;8085;53.472;9.794;2023-03-19T02:18:08;1.80;;;1.30;;
15968;SDS011;8085;53.472;9.794;2023-03-19T02:20:36;2.23;;;1.50;;
15968;SDS011;8085;53.472;9.794;2023-03-19T02:23:11;1.50;;;1.20;;
15968;SDS011;8085;53.472;9.794;2023-03-19T02:25:50;1.53;;;1.30;;
15968;SDS011;8085;53.472;9.794;2023-03-19T02:28:30;2.07;;;1.57;;
15968;SDS011;8085;53.472;9.794;2023-03-19T02:30:58;2.73;;;1.60;;
15968;SDS011;8085;53.472;9.794;2023-03-19T02:33:25;2.10;;;1.50;;
15968;SDS011;8085;53.472;9.794;2023-03-19T02:35:52;4.13;;;1.63;;
15968;SDS011;8085;53.472;9.794;2023-03-19T02:38:20;2.57;;;1.80;;
15968;SDS011;8085;53.472;9.794;2023-03-19T02:40:52;2.63;;;1.70;;
15968;SDS011;8085;53.472;9.794;2023-03-19T02:43:23;3.17;;;1.63;;
15968;SDS011;8085;53.472;9.794;2023-03-19T02:45:51;2.17;;;1.60;;
15968;SDS011;8085;53.472;9.794;2023-03-19T02:48:17;3.50;;;2.20;;
15968;SDS011;8085;53.472;9.794;2023-03-19T02:50:45;2.10;;;1.57;;
15968;SDS011;8085;53.472;9.794;2023-03-19T02:53:11;2.37;;;1.73;;
15968;SDS011;8085;53.472;9.794;2023-03-19T02:55:39;2.50;;;1.77;;
15968;SDS011;8085;53.472;9.794;2023-03-19T02:58:08;2.23;;;1.80;;
15968;SDS011;8085;53.472;9.794;2023-03-19T03:00:35;2.33;;;1.80;;
15968;SDS011;8085;53.472;9.794;2023-03-19T03:03:02;3.70;;;1.90;;
15968;SDS011;8085;53.472;9.794;2023-03-19T03:05:30;2.47;;;1.90;;
15968;SDS011;8085;53.472;9.794;2023-03-19T03:07:57;4.90;;;1.93;;
15968;SDS011;8085;53.472;9.794;2023-03-19T03:10:24;2.70;;;1.97;;
15968;SDS011;8085;53.472;9.794;2023-03-19T03:12:51;1.93;;;1.73;;
15968;SDS011;8085;53.472;9.794;2023-03-19T03:15:20;2.50;;;1.90;;
15968;SDS011;8085;53.472;9.794;2023-03-19T03:17:47;2.07;;;1.67;;
15968;SDS011;8085;53.472;9.794;2023-03-19T03:20:14;4.73;;;1.83;;
15968;SDS011;8085;53.472;9.794;2023-03-19T03:22:44;4.23;;;2.10;;
15968;SDS011;8085;53.472;9.794;2023-03-19T03:25:12;4.43;;;2.27;;
15968;SDS011;8085;53.472;9.794;2023-03-19T03:27:40;3.07;;;2.10;;
15968;SDS011;8085;53.472;9.794;2023-03-19T03:30:07;2.43;;;2.00;;
15968;SDS011;8085;53.472;9.794;2023-03-19T03:32:37;2.90;;;2.23;;
15968;SDS011;8085;53.472;9.794;2023-03-19T03:35:05;3.43;;;1.90;;
15968;SDS011;8085;53.472;9.794;2023-03-19T03:37:33;2.43;;;1.87;;
15968;SDS011;8085;53.472;9.794;2023-03-19T03:40:00;3.37;;;2.10;;
15968;SDS011;8085;53.472;9.794;2023-03-19T03:42:32;2.97;;;2.30;;
15968;SDS011;8085;53.472;9.794;2023-03-19T03:45:00;3.60;;;2.13;;
15968;SDS011;8085;53.472;9.794;2023-03-19T03:47:27;3.40;;;2.67;;
15968;SDS011;8085;53.472;9.794;2023-03-19T03:49:55;3.07;;;2.30;;
15968;SDS011;8085;53.472;9.794;2023-03-19T03:52:22;2.30;;;1.80;;
15968;SDS011;8085;53.472;9.794;2023-03-19T03:54:49;2.73;;;2.43;;
15968;SDS011;8085;53.472;9.794;2023-03-19T03:57:16;2.70;;;2.03;;
15968;SDS011;8085;53.472;9.794;2023-03-19T03:59:43;2.93;;;2.30;;
15968;SDS011;8085;53.472;9.794;2023-03-19T04:02:10;3.00;;;2.07;;
15968;SDS011;8085;53.472;9.794;2023-03-19T04:04:37;3.27;;;2.50;;
15968;SDS011;8085;53.472;9.794;2023-03-19T04:07:05;2.77;;;2.50;;
15968;SDS011;8085;53.472;9.794;2023-03-19T04:09:32;4.13;;;2.60;;
15968;SDS011;8085;53.472;9.794;2023-03-19T04:11:59;3.50;;;2.60;;
15968;SDS011;8085;53.472;9.794;2023-03-19T04:14:26;4.50;;;2.80;;
15968;SDS011;8085;53.472;9.794;2023-03-19T04:16:53;2.77;;;2.50;;
15968;SDS011;8085;53.472;9.794;2023-03-19T04:19:19;4.13;;;2.43;;
15968;SDS011;8085;53.472;9.794;2023-03-19T04:21:46;3.73;;;2.83;;
15968;SDS011;8085;53.472;9.794;2023-03-19T04:24:15;3.43;;;3.13;;
15968;SDS011;8085;53.472;9.794;2023-03-19T04:26:42;3.10;;;2.73;;
15968;SDS011;8085;53.472;9.794;2023-03-19T04:29:11;3.50;;;2.70;;
15968;SDS011;8085;53.472;9.794;2023-03-19T04:31:38;4.17;;;3.33;;
15968;SDS011;8085;53.472;9.794;2023-03-19T04:34:04;4.47;;;3.03;;
15968;SDS011;8085;53.472;9.794;2023-03-19T04:36:31;3.30;;;3.00;;
15968;SDS011;8085;53.472;9.794;2023-03-19T04:38:58;4.37;;;3.30;;
15968;SDS011;8085;53.472;9.794;2023-03-19T04:41:27;5.23;;;3.63;;
15968;SDS011;8085;53.472;9.794;2023-03-19T04:43:54;5.53;;;3.70;;
15968;SDS011;8085;53.472;9.794;2023-03-19T04:46:21;4.87;;;3.57;;
15968;SDS011;8085;53.472;9.794;2023-03-19T04:48:48;4.43;;;3.70;;
15968;SDS011;8085;53.472;9.794;2023-03-19T04:51:16;6.20;;;4.03;;
15968;SDS011;8085;53.472;9.794;2023-03-19T04:53:45;4.80;;;3.73;;
15968;SDS011;8085;53.472;9.794;2023-03-19T04:56:13;5.43;;;3.63;;
15968;SDS011;8085;53.472;9.794;2023-03-19T04:58:41;5.10;;;4.13;;
15968;SDS011;8085;53.472;9.794;2023-03-19T05:01:09;5.27;;;3.87;;
15968;SDS011;8085;53.472;9.794;2023-03-19T05:03:35;5.20;;;3.90;;
15968;SDS011;8085;53.472;9.794;2023-03-19T05:06:02;5.37;;;4.03;;
15968;SDS011;8085;53.472;9.794;2023-03-19T05:08:30;4.87;;;4.37;;
15968;SDS011;8085;53.472;9.794;2023-03-19T05:10:56;6.20;;;4.53;;
15968;SDS011;8085;53.472;9.794;2023-03-19T05:13:23;6.03;;;4.97;;
15968;SDS011;8085;53.472;9.794;2023-03-19T05:15:52;6.57;;;5.43;;
15968;SDS011;8085;53.472;9.794;2023-03-19T05:18:20;9.33;;;6.13;;
15968;SDS011;8085;53.472;9.794;2023-03-19T05:20:48;8.00;;;7.20;;
15968;SDS011;8085;53.472;9.794;2023-03-19T05:23:15;10.10;;;7.53;;
15968;SDS011;8085;53.472;9.794;2023-03-19T05:25:42;9.17;;;6.80;;
15968;SDS011;8085;53.472;9.794;2023-03-19T05:28:09;10.17;;;7.17;;
15968;SDS011;8085;53.472;9.794;2023-03-19T05:30:36;8.67;;;7.10;;
15968;SDS011;8085;53.472;9.794;2023-03-19T05:33:04;10.37;;;7.70;;
15968;SDS011;8085;53.472;9.794;2023-03-19T05:35:31;10.97;;;8.70;;
15968;SDS011;8085;53.472;9.794;2023-03-19T05:37:58;10.67;;;8.63;;
15968;SDS011;8085;53.472;9.794;2023-03-19T05:40:26;12.43;;;8.63;;
15968;SDS011;8085;53.472;9.794;2023-03-19T05:42:53;11.53;;;9.20;;
15968;SDS011;8085;53.472;9.794;2023-03-19T05:45:20;11.47;;;8.80;;
15968;SDS011;8085;53.472;9.794;2023-03-19T05:47:47;13.10;;;9.17;;
15968;SDS011;8085;53.472;9.794;2023-03-19T05:50:16;11.43;;;8.77;;
15968;SDS011;8085;53.472;9.794;2023-03-19T05:52:43;12.10;;;9.20;;
15968;SDS011;8085;53.472;9.794;2023-03-19T05:55:10;13.27;;;8.93;;
15968;SDS011;8085;53.472;9.794;2023-03-19T05:57:37;11.07;;;8.50;;
15968;SDS011;8085;53.472;9.794;2023-03-19T06:00:05;8.57;;;6.93;;
15968;SDS011;8085;53.472;9.794;2023-03-19T06:02:33;10.63;;;7.70;;
15968;SDS011;8085;53.472;9.794;2023-03-19T06:05:01;9.63;;;7.90;;
15968;SDS011;8085;53.472;9.794;2023-03-19T06:07:29;9.50;;;7.53;;
15968;SDS011;8085;53.472;9.794;2023-03-19T06:09:56;11.30;;;8.63;;
15968;SDS011;8085;53.472;9.794;2023-03-19T06:12:23;14.63;;;9.90;;
15968;SDS011;8085;53.472;9.794;2023-03-19T06:14:50;13.37;;;9.90;;
15968;SDS011;8085;53.472;9.794;2023-03-19T06:17:17;12.83;;;10.10;;
15968;SDS011;8085;53.472;9.794;2023-03-19T06:19:44;16.03;;;10.47;;
15968;SDS011;8085;53.472;9.794;2023-03-19T06:22:11;14.97;;;10.37;;
15968;SDS011;8085;53.472;9.794;2023-03-19T06:24:39;13.47;;;9.37;;
15968;SDS011;8085;53.472;9.794;2023-03-19T06:27:06;15.70;;;9.70;;
15968;SDS011;8085;53.472;9.794;2023-03-19T06:29:33;19.70;;;9.77;;
15968;SDS011;8085;53.472;9.794;2023-03-19T06:32:00;11.67;;;8.57;;
15968;SDS011;8085;53.472;9.794;2023-03-19T06:34:27;13.53;;;9.87;;
15968;SDS011;8085;53.472;9.794;2023-03-19T06:36:54;11.80;;;8.60;;
15968;SDS011;8085;53.472;9.794;2023-03-19T06:39:21;10.97;;;8.30;;
15968;SDS011;8085;53.472;9.794;2023-03-19T06:41:49;10.90;;;8.33;;
15968;SDS011;8085;53.472;9.794;2023-03-19T06:44:16;9.80;;;7.87;;
15968;SDS011;8085;53.472;9.794;2023-03-19T06:46:44;10.57;;;7.90;;
15968;SDS011;8085;53.472;9.794;2023-03-19T06:49:11;10.03;;;7.70;;
15968;SDS011;8085;53.472;9.794;2023-03-19T06:51:37;10.67;;;7.43;;
15968;SDS011;8085;53.472;9.794;2023-03-19T06:54:04;12.00;;;7.80;;
15968;SDS011;8085;53.472;9.794;2023-03-19T06:56:31;8.40;;;7.10;;
15968;SDS011;8085;53.472;9.794;2023-03-19T06:58:59;10.30;;;7.07;;
15968;SDS011;8085;53.472;9.794;2023-03-19T07:01:26;11.00;;;7.53;;
15968;SDS011;8085;53.472;9.794;2023-03-19T07:03:53;10.00;;;7.47;;
15968;SDS011;8085;53.472;9.794;2023-03-19T07:06:21;8.63;;;6.63;;
15968;SDS011;8085;53.472;9.794;2023-03-19T07:08:48;10.30;;;6.77;;
15968;SDS011;8085;53.472;9.794;2023-03-19T07:11:15;9.30;;;7.10;;
15968;SDS011;8085;53.472;9.794;2023-03-19T07:13:42;8.53;;;6.93;;
15968;SDS011;8085;53.472;9.794;2023-03-19T07:16:10;10.73;;;7.00;;
15968;SDS011;8085;53.472;9.794;2023-03-19T07:18:37;8.07;;;6.60;;
15968;SDS011;8085;53.472;9.794;2023-03-19T07:21:03;10.20;;;6.77;;
15968;SDS011;8085;53.472;9.794;2023-03-19T07:23:30;10.17;;;7.07;;
15968;SDS011;8085;53.472;9.794;2023-03-19T07:25:57;8.70;;;6.43;;
15968;SDS011;8085;53.472;9.794;2023-03-19T07:28:24;9.90;;;6.27;;
15968;SDS011;8085;53.472;9.794;2023-03-19T07:30:51;9.77;;;6.87;;
15968;SDS011;8085;53.472;9.794;2023-03-19T07:33:20;10.33;;;6.50;;
15968;SDS011;8085;53.472;9.794;2023-03-19T07:35:47;7.93;;;6.40;;
15968;SDS011;8085;53.472;9.794;2023-03-19T07:38:14;8.10;;;6.23;;
15968;SDS011;8085;53.472;9.794;2023-03-19T07:40:41;9.97;;;6.40;;
15968;SDS011;8085;53.472;9.794;2023-03-19T07:43:08;10.70;;;6.73;;
15968;SDS011;8085;53.472;9.794;2023-03-19T07:45:35;10.40;;;6.50;;
15968;SDS011;8085;53.472;9.794;2023-03-19T07:48:02;9.40;;;6.43;;
15968;SDS011;8085;53.472;9.794;2023-03-19T07:50:30;7.93;;;6.13;;
15968;SDS011;8085;53.472;9.794;2023-03-19T07:52:57;11.50;;;6.80;;
15968;SDS011;8085;53.472;9.794;2023-03-19T07:55:24;8.53;;;6.37;;
15968;SDS011;8085;53.472;9.794;2023-03-19T07:57:51;11.20;;;6.40;;
15968;SDS011;8085;53.472;9.794;2023-03-19T08:00:18;11.67;;;6.70;;
15968;SDS011;8085;53.472;9.794;2023-03-19T08:02:45;9.60;;;5.87;;
15968;SDS011;8085;53.472;9.794;2023-03-19T08:05:12;8.53;;;6.33;;
15968;SDS011;8085;53.472;9.794;2023-03-19T08:07:41;8.17;;;6.60;;
15968;SDS011;8085;53.472;9.794;2023-03-19T08:10:09;6.40;;;5.70;;
15968;SDS011;8085;53.472;9.794;2023-03-19T08:12:37;8.70;;;6.53;;
15968;SDS011;8085;53.472;9.794;2023-03-19T08:15:07;8.67;;;6.30;;
15968;SDS011;8085;53.472;9.794;2023-03-19T08:17:35;8.23;;;6.07;;
15968;SDS011;8085;53.472;9.794;2023-03-19T08:20:04;8.13;;;5.87;;
15968;SDS011;8085;53.472;9.794;2023-03-19T08:22:32;7.27;;;5.73;;
15968;SDS011;8085;53.472;9.794;2023-03-19T08:25:01;8.13;;;5.90;;
15968;SDS011;8085;53.472;9.794;2023-03-19T08:27:28;6.93;;;5.30;;
15968;SDS011;8085;53.472;9.794;2023-03-19T08:29:58;7.53;;;5.30;;
15968;SDS011;8085;53.472;9.794;2023-03-19T08:32:25;7.97;;;5.10;;
15968;SDS011;8085;53.472;9.794;2023-03-19T08:34:51;8.87;;;4.90;;
15968;SDS011;8085;53.472;9.794;2023-03-19T08:37:18;6.60;;;4.40;;
15968;SDS011;8085;53.472;9.794;2023-03-19T08:39:45;7.23;;;4.50;;
15968;SDS011;8085;53.472;9.794;2023-03-19T08:42:14;5.97;;;4.83;;
15968;SDS011;8085;53.472;9.794;2023-03-19T08:44:40;7.17;;;4.90;;
15968;SDS011;8085;53.472;9.794;2023-03-19T08:47:07;6.87;;;4.70;;
15968;SDS011;8085;53.472;9.794;2023-03-19T08:49:35;6.57;;;4.40;;
15968;SDS011;8085;53.472;9.794;2023-03-19T08:52:02;7.20;;;4.47;;
15968;SDS011;8085;53.472;9.794;2023-03-19T08:54:30;7.70;;;4.60;;
15968;SDS011;8085;53.472;9.794;2023-03-19T08:56:58;5.53;;;3.90;;
15968;SDS011;8085;53.472;9.794;2023-03-19T08:59:26;4.93;;;4.20;;
15968;SDS011;8085;53.472;9.794;2023-03-19T09:01:53;8.07;;;4.13;;
15968;SDS011;8085;53.472;9.794;2023-03-19T09:04:20;8.27;;;4.27;;
15968;SDS011;8085;53.472;9.794;2023-03-19T09:06:47;5.40;;;4.13;;
15968;SDS011;8085;53.472;9.794;2023-03-19T09:09:15;6.97;;;3.70;;
15968;SDS011;8085;53.472;9.794;2023-03-19T09:11:43;5.07;;;3.60;;
15968;SDS011;8085;53.472;9.794;2023-03-19T09:14:10;5.80;;;3.40;;
15968;SDS011;8085;53.472;9.794;2023-03-19T09:16:38;5.80;;;3.30;;
15968;SDS011;8085;53.472;9.794;2023-03-19T09:19:05;4.40;;;3.03;;
15968;SDS011;8085;53.472;9.794;2023-03-19T09:21:33;5.97;;;3.40;;
15968;SDS011;8085;53.472;9.794;2023-03-19T09:24:01;4.40;;;3.17;;
15968;SDS011;8085;53.472;9.794;2023-03-19T09:26:28;6.23;;;2.90;;
15968;SDS011;8085;53.472;9.794;2023-03-19T09:28:55;4.93;;;2.70;;
15968;SDS011;8085;53.472;9.794;2023-03-19T09:31:22;6.03;;;3.07;;
15968;SDS011;8085;53.472;9.794;2023-03-19T09:33:51;4.60;;;2.77;;
15968;SDS011;8085;53.472;9.794;2023-03-19T09:36:18;3.80;;;2.80;;
15968;SDS011;8085;53.472;9.794;2023-03-19T09:38:44;4.43;;;2.50;;
15968;SDS011;8085;53.472;9.794;2023-03-19T09:41:12;5.30;;;3.03;;
15968;SDS011;8085;53.472;9.794;2023-03-19T09:43:50;6.13;;;3.13;;
15968;SDS011;8085;53.472;9.794;2023-03-19T09:46:25;3.77;;;2.80;;
15968;SDS011;8085;53.472;9.794;2023-03-19T09:49:04;4.10;;;2.47;;
15968;SDS011;8085;53.472;9.794;2023-03-19T09:51:42;4.07;;;2.50;;
15968;SDS011;8085;53.472;9.794;2023-03-19T09:54:19;5.47;;;2.33;;
15968;SDS011;8085;53.472;9.794;2023-03-19T09:56:51;4.57;;;2.80;;
15968;SDS011;8085;53.472;9.794;2023-03-19T09:59:19;4.70;;;2.17;;
15968;SDS011;8085;53.472;9.794;2023-03-19T10:01:49;4.67;;;2.70;;
15968;SDS011;8085;53.472;9.794;2023-03-19T10:04:36;3.97;;;3.00;;
15968;SDS011;8085;53.472;9.794;2023-03-19T10:07:11;3.60;;;2.53;;
15968;SDS011;8085;53.472;9.794;2023-03-19T10:09:49;5.90;;;2.47;;
15968;SDS011;8085;53.472;9.794;2023-03-19T10:12:30;3.13;;;2.30;;
15968;SDS011;8085;53.472;9.794;2023-03-19T10:15:11;7.27;;;2.60;;
15968;SDS011;8085;53.472;9.794;2023-03-19T10:17:46;5.13;;;2.60;;
15968;SDS011;8085;53.472;9.794;2023-03-19T10:20:24;5.80;;;2.77;;
15968;SDS011;8085;53.472;9.794;2023-03-19T10:22:59;4.33;;;2.60;;
15968;SDS011;8085;53.472;9.794;2023-03-19T10:25:36;6.37;;;3.33;;
15968;SDS011;8085;53.472;9.794;2023-03-19T10:28:10;4.40;;;2.33;;
15968;SDS011;8085;53.472;9.794;2023-03-19T10:30:40;4.10;;;2.70;;
15968;SDS011;8085;53.472;9.794;2023-03-19T10:33:12;4.03;;;2.47;;
15968;SDS011;8085;53.472;9.794;2023-03-19T10:35:49;4.20;;;2.77;;
15968;SDS011;8085;53.472;9.794;2023-03-19T10:38:22;3.80;;;2.87;;
15968;SDS011;8085;53.472;9.794;2023-03-19T10:40:55;6.03;;;2.73;;
15968;SDS011;8085;53.472;9.794;2023-03-19T10:43:31;5.00;;;2.57;;
15968;SDS011;8085;53.472;9.794;2023-03-19T10:45:59;5.93;;;2.97;;
15968;SDS011;8085;53.472;9.794;2023-03-19T10:48:26;5.07;;;3.00;;
15968;SDS011;8085;53.472;9.794;2023-03-19T10:50:55;5.33;;;2.80;;
15968;SDS011;8085;53.472;9.794;2023-03-19T10:53:30;7.50;;;3.63;;
15968;SDS011;8085;53.472;9.794;2023-03-19T10:56:01;5.00;;;2.57;;
15968;SDS011;8085;53.472;9.794;2023-03-19T10:58:31;4.27;;;2.33;;
15968;SDS011;8085;53.472;9.794;2023-03-19T11:01:02;6.20;;;2.33;;
15968;SDS011;8085;53.472;9.794;2023-03-19T11:03:31;2.83;;;2.00;;
15968;SDS011;8085;53.472;9.794;2023-03-19T11:06:06;5.20;;;2.17;;
15968;SDS011;8085;53.472;9.794;2023-03-19T11:08:46;3.17;;;2.00;;
15968;SDS011;8085;53.472;9.794;2023-03-19T11:11:24;6.63;;;2.00;;
15968;SDS011;8085;53.472;9.794;2023-03-19T11:13:52;4.63;;;2.17;;
15968;SDS011;8085;53.472;9.794;2023-03-19T11:16:19;5.47;;;2.00;;
15968;SDS011;8085;53.472;9.794;2023-03-19T11:18:46;4.50;;;2.23;;
15968;SDS011;8085;53.472;9.794;2023-03-19T11:21:22;4.83;;;2.07;;
15968;SDS011;8085;53.472;9.794;2023-03-19T11:23:57;4.27;;;2.67;;
15968;SDS011;8085;53.472;9.794;2023-03-19T11:26:26;4.30;;;2.53;;
15968;SDS011;8085;53.472;9.794;2023-03-19T11:28:53;6.70;;;2.73;;
15968;SDS011;8085;53.472;9.794;2023-03-19T11:31:27;8.70;;;4.07;;
15968;SDS011;8085;53.472;9.794;2023-03-19T11:34:02;7.73;;;4.30;;
15968;SDS011;8085;53.472;9.794;2023-03-19T11:36:43;9.73;;;4.63;;
15968;SDS011;8085;53.472;9.794;2023-03-19T11:39:17;8.13;;;4.57;;
15968;SDS011;8085;53.472;9.794;2023-03-19T11:41:56;6.00;;;4.40;;
15968;SDS011;8085;53.472;9.794;2023-03-19T11:44:35;7.90;;;3.37;;
15968;SDS011;8085;53.472;9.794;2023-03-19T11:47:09;4.60;;;3.37;;
15968;SDS011;8085;53.472;9.794;2023-03-19T11:50:04;5.57;;;3.17;;
15968;SDS011;8085;53.472;9.794;2023-03-19T11:52:48;4.50;;;2.00;;
15968;SDS011;8085;53.472;9.794;2023-03-19T11:55:27;2.80;;;1.40;;
15968;SDS011;8085;53.472;9.794;2023-03-19T11:58:03;2.53;;;1.50;;
15968;SDS011;8085;53.472;9.794;2023-03-19T12:00:45;5.07;;;1.77;;
15968;SDS011;8085;53.472;9.794;2023-03-19T12:03:24;4.90;;;1.87;;
15968;SDS011;8085;53.472;9.794;2023-03-19T12:06:11;4.70;;;1.77;;
15968;SDS011;8085;53.472;9.794;2023-03-19T12:08:51;3.30;;;1.60;;
15968;SDS011;8085;53.472;9.794;2023-03-19T12:11:26;2.37;;;1.47;;
15968;SDS011;8085;53.472;9.794;2023-03-19T12:14:05;3.30;;;1.80;;
15968;SDS011;8085;53.472;9.794;2023-03-19T12:16:48;2.80;;;1.70;;
15968;SDS011;8085;53.472;9.794;2023-03-19T12:19:44;3.80;;;1.80;;
15968;SDS011;8085;53.472;9.794;2023-03-19T12:22:38;3.33;;;1.83;;
15968;SDS011;8085;53.472;9.794;2023-03-19T12:25:18;2.57;;;1.90;;
15968;SDS011;8085;53.472;9.794;2023-03-19T12:27:53;6.73;;;2.23;;
15968;SDS011;8085;53.472;9.794;2023-03-19T12:30:29;6.23;;;2.10;;
15968;SDS011;8085;53.472;9.794;2023-03-19T12:33:07;3.27;;;2.10;;
15968;SDS011;8085;53.472;9.794;2023-03-19T12:35:39;3.60;;;2.17;;
15968;SDS011;8085;53.472;9.794;2023-03-19T12:38:09;4.27;;;2.30;;
15968;SDS011;8085;53.472;9.794;2023-03-19T12:40:44;3.97;;;2.67;;
15968;SDS011;8085;53.472;9.794;2023-03-19T12:43:17;5.47;;;2.33;;
15968;SDS011;8085;53.472;9.794;2023-03-19T12:45:49;3.73;;;2.43;;
15968;SDS011;8085;53.472;9.794;2023-03-19T12:48:22;3.07;;;2.03;;
15968;SDS011;8085;53.472;9.794;2023-03-19T12:50:53;3.83;;;2.07;;
15968;SDS011;8085;53.472;9.794;2023-03-19T12:53:29;4.07;;;2.57;;
15968;SDS011;8085;53.472;9.794;2023-03-19T12:56:03;4.87;;;2.47;;
15968;SDS011;8085;53.472;9.794;2023-03-19T12:58:37;4.60;;;2.43;;
15968;SDS011;8085;53.472;9.794;2023-03-19T13:01:11;3.63;;;2.50;;
15968;SDS011;8085;53.472;9.794;2023-03-19T13:03:43;5.00;;;2.63;;
15968;SDS011;8085;53.472;9.794;2023-03-19T13:06:19;4.73;;;2.67;;
15968;SDS011;8085;53.472;9.794;2023-03-19T13:08:51;4.07;;;3.00;;
15968;SDS011;8085;53.472;9.794;2023-03-19T13:11:25;6.60;;;2.67;;
15968;SDS011;8085;53.472;9.794;2023-03-19T13:14:02;6.17;;;3.10;;
15968;SDS011;8085;53.472;9.794;2023-03-19T13:16:37;6.40;;;3.17;;
15968;SDS011;8085;53.472;9.794;2023-03-19T13:19:12;5.90;;;3.03;;
15968;SDS011;8085;53.472;9.794;2023-03-19T13:21:45;3.63;;;3.00;;
15968;SDS011;8085;53.472;9.794;2023-03-19T13:24:17;4.53;;;3.30;;
15968;SDS011;8085;53.472;9.794;2023-03-19T13:26:49;5.97;;;3.07;;
15968;SDS011;8085;53.472;9.794;2023-03-19T13:29:18;6.67;;;3.40;;
15968;SDS011;8085;53.472;9.794;2023-03-19T13:31:46;5.10;;;3.37;;
15968;SDS011;8085;53.472;9.794;2023-03-19T13:34:23;5.87;;;3.20;;
15968;SDS011;8085;53.472;9.794;2023-03-19T13:36:52;5.03;;;3.23;;
15968;SDS011;8085;53.472;9.794;2023-03-19T13:39:25;5.93;;;3.47;;
15968;SDS011;8085;53.472;9.794;2023-03-19T13:45:03;5.27;;;3.43;;
15968;SDS011;8085;53.472;9.794;2023-03-19T13:47:56;6.67;;;3.17;;
15968;SDS011;8085;53.472;9.794;2023-03-19T13:50:25;7.53;;;3.80;;
15968;SDS011;8085;53.472;9.794;2023-03-19T13:53:10;6.00;;;3.67;;
15968;SDS011;8085;53.472;9.794;2023-03-19T13:56:03;6.23;;;3.80;;
15968;SDS011;8085;53.472;9.794;2023-03-19T13:58:42;7.90;;;4.17;;
15968;SDS011;8085;53.472;9.794;2023-03-19T14:01:36;6.20;;;3.80;;
15968;SDS011;8085;53.472;9.794;2023-03-19T14:04:05;5.43;;;3.90;;
15968;SDS011;8085;53.472;9.794;2023-03-19T14:06:43;5.67;;;4.03;;
15968;SDS011;8085;53.472;9.794;2023-03-19T14:09:28;5.70;;;4.27;;
15968;SDS011;8085;53.472;9.794;2023-03-19T14:12:20;4.70;;;3.70;;
15968;SDS011;8085;53.472;9.794;2023-03-19T14:14:55;8.00;;;4.57;;
15968;SDS011;8085;53.472;9.794;2023-03-19T14:17:27;7.00;;;3.90;;
15968;SDS011;8085;53.472;9.794;2023-03-19T14:19:59;6.20;;;3.67;;
15968;SDS011;8085;53.472;9.794;2023-03-19T14:22:52;4.53;;;3.73;;
15968;SDS011;8085;53.472;9.794;2023-03-19T14:25:22;6.70;;;4.10;;
15968;SDS011;8085;53.472;9.794;2023-03-19T14:27:52;5.13;;;3.53;;
15968;SDS011;8085;53.472;9.794;2023-03-19T14:30:26;14.23;;;10.67;;
15968;SDS011;8085;53.472;9.794;2023-03-19T14:32:58;7.40;;;4.50;;
15968;SDS011;8085;53.472;9.794;2023-03-19T14:35:31;5.73;;;4.33;;
15968;SDS011;8085;53.472;9.794;2023-03-19T14:38:01;8.50;;;5.40;;
15968;SDS011;8085;53.472;9.794;2023-03-19T14:40:37;10.03;;;5.03;;
15968;SDS011;8085;53.472;9.794;2023-03-19T14:43:13;13.97;;;8.10;;
15968;SDS011;8085;53.472;9.794;2023-03-19T14:45:51;11.93;;;7.63;;
15968;SDS011;8085;53.472;9.794;2023-03-19T14:48:25;10.40;;;6.60;;
15968;SDS011;8085;53.472;9.794;2023-03-19T14:51:19;7.27;;;5.00;;
15968;SDS011;8085;53.472;9.794;2023-03-19T14:54:01;8.90;;;6.53;;
15968;SDS011;8085;53.472;9.794;2023-03-19T14:56:32;11.40;;;6.87;;
15968;SDS011;8085;53.472;9.794;2023-03-19T14:59:00;8.43;;;6.67;;
15968;SDS011;8085;53.472;9.794;2023-03-19T15:01:30;10.60;;;6.80;;
15968;SDS011;8085;53.472;9.794;2023-03-19T15:04:00;12.37;;;9.03;;
15968;SDS011;8085;53.472;9.794;2023-03-19T15:06:30;10.27;;;8.20;;
15968;SDS011;8085;53.472;9.794;2023-03-19T15:08:59;12.57;;;8.67;;
15968;SDS011;8085;53.472;9.794;2023-03-19T15:11:31;11.57;;;8.77;;
15968;SDS011;8085;53.472;9.794;2023-03-19T15:14:16;10.43;;;8.60;;
15968;SDS011;8085;53.472;9.794;2023-03-19T15:16:53;11.40;;;8.33;;
15968;SDS011;8085;53.472;9.794;2023-03-19T15:19:31;9.43;;;8.47;;